Time;durP1;ratioP1;P1;durP2;ratioP2;P2;SDS_P1;SDS_P2;PMS_P1;PMS_P2;Temp;Humidity;BMP_temperature;BMP_pressure;BME280_temperature;BME280_humidity;BME280_pressure;Samples;Min_cycle;Max_cycle;Signal;HPM_P1;HPM_P2
2022/10/24 00:02:03;;;;;;;;;;;12.60;99.90;;;;;;5018244;28;19943;-85
2022/10/24 00:04:29;;;;;;;;;;;12.60;99.90;;;;;;5010235;28;20412;-86
2022/10/24 00:06:54;;;;;;;;;;;12.60;99.90;;;;;;5023804;28;20000;-87
2022/10/24 00:09:20;;;;;;;;;;;12.60;99.90;;;;;;5027577;28;19917;-87
2022/10/24 00:11:45;;;;;;;;;;;12.50;99.90;;;;;;5006234;28;19925;-85
2022/10/24 00:14:11;;;;;;;;;;;12.60;99.90;;;;;;5026363;28;19917;-85
2022/10/24 00:16:36;;;;;;;;;;;12.60;99.90;;;;;;5022870;28;19921;-85
2022/10/24 00:19:02;;;;;;;;;;;12.60;99.90;;;;;;5025000;28;19925;-87
2022/10/24 00:21:28;;;;;;;;;;;12.60;99.90;;;;;;5022387;28;20000;-87
2022/10/24 00:23:53;;;;;;;;;;;12.60;99.90;;;;;;5012895;28;20020;-86
2022/10/24 00:26:19;;;;;;;;;;;12.60;99.90;;;;;;5027642;28;19968;-85
2022/10/24 00:28:44;;;;;;;;;;;12.70;99.90;;;;;;5017489;28;19917;-87
2022/10/24 00:31:14;;;;;;;;;;;12.70;99.90;;;;;;5029933;28;20284;-85
2022/10/24 00:33:39;;;;;;;;;;;12.70;99.90;;;;;;5005077;28;19920;-87
2022/10/24 00:36:08;;;;;;;;;;;12.70;99.90;;;;;;5026504;28;19917;-87
2022/10/24 00:38:34;;;;;;;;;;;12.70;99.90;;;;;;5030866;28;20275;-87
2022/10/24 00:40:59;;;;;;;;;;;12.60;99.90;;;;;;5022292;28;19917;-86
2022/10/24 00:43:25;;;;;;;;;;;12.70;99.90;;;;;;5029012;28;19917;-86
2022/10/24 00:45:55;;;;;;;;;;;12.60;99.90;;;;;;5006525;28;20296;-86
2022/10/24 00:48:29;;;;;;;;;;;12.60;99.90;;;;;;5023205;28;19921;-86
2022/10/24 00:50:57;;;;;;;;;;;12.50;99.90;;;;;;5030457;28;20004;-89
2022/10/24 00:53:23;;;;;;;;;;;12.60;99.90;;;;;;5021771;28;19918;-86
2022/10/24 00:55:51;;;;;;;;;;;12.50;99.90;;;;;;5026262;28;19921;-87
2022/10/24 00:58:17;;;;;;;;;;;12.50;99.90;;;;;;5012806;28;20380;-86
2022/10/24 01:00:43;;;;;;;;;;;12.50;99.90;;;;;;5027624;28;20450;-86
2022/10/24 01:03:10;;;;;;;;;;;12.50;99.90;;;;;;5031801;28;19913;-85
2022/10/24 01:05:55;;;;;;;;;;;12.40;99.90;;;;;;5033563;28;19921;-86
2022/10/24 01:08:36;;;;;;;;;;;12.50;99.90;;;;;;4995179;28;19925;-83
2022/10/24 01:11:12;;;;;;;;;;;12.40;99.90;;;;;;5031832;28;19998;-86
2022/10/24 01:13:53;;;;;;;;;;;12.50;99.90;;;;;;5014701;28;20363;-86
2022/10/24 01:16:23;;;;;;;;;;;12.50;99.90;;;;;;5026426;28;20376;-86
2022/10/24 01:18:56;;;;;;;;;;;12.60;99.90;;;;;;5000701;28;19917;-85
2022/10/24 01:21:23;;;;;;;;;;;12.60;99.90;;;;;;5026217;28;19928;-85
2022/10/24 01:24:01;;;;;;;;;;;12.60;99.90;;;;;;5022776;28;19925;-86
2022/10/24 01:26:32;;;;;;;;;;;12.60;99.90;;;;;;5029753;28;19962;-85
2022/10/24 01:29:10;;;;;;;;;;;12.60;99.90;;;;;;5026063;28;19925;-84
2022/10/24 01:31:44;;;;;;;;;;;12.60;99.90;;;;;;5027616;28;20292;-87
2022/10/24 01:34:15;;;;;;;;;;;12.60;99.90;;;;;;5012284;28;19917;-87
2022/10/24 01:36:45;;;;;;;;;;;12.60;99.90;;;;;;5025739;28;19917;-85
2022/10/24 01:39:14;;;;;;;;;;;12.60;99.90;;;;;;5026276;28;19932;-85
2022/10/24 01:41:40;;;;;;;;;;;12.60;99.90;;;;;;5032175;28;20610;-85
2022/10/24 01:44:26;;;;;;;;;;;12.60;99.90;;;;;;5032129;28;19966;-86
2022/10/24 01:46:57;;;;;;;;;;;12.60;99.90;;;;;;5009940;28;19921;-85
2022/10/24 01:49:26;;;;;;;;;;;12.60;99.90;;;;;;5019301;28;19964;-87
2022/10/24 01:51:53;;;;;;;;;;;12.60;99.90;;;;;;5030197;28;19913;-86
2022/10/24 01:54:19;;;;;;;;;;;12.60;99.90;;;;;;5020373;28;19920;-87
2022/10/24 01:56:44;;;;;;;;;;;12.60;99.90;;;;;;5013121;28;19921;-86
2022/10/24 01:59:28;;;;;;;;;;;12.60;99.90;;;;;;5023342;28;19959;-86
2022/10/24 02:01:55;;;;;;;;;;;12.60;99.90;;;;;;5029370;28;19975;-86
2022/10/24 02:04:21;;;;;;;;;;;12.60;99.90;;;;;;5021995;28;19918;-85
2022/10/24 02:06:47;;;;;;;;;;;12.60;99.90;;;;;;5026279;28;19921;-87
2022/10/24 02:09:15;;;;;;;;;;;12.60;99.90;;;;;;5007314;28;19913;-86
2022/10/24 02:11:41;;;;;;;;;;;12.70;99.90;;;;;;5026581;28;20392;-85
2022/10/24 02:14:12;;;;;;;;;;;12.60;99.90;;;;;;5030532;28;19921;-86
2022/10/24 02:16:38;;;;;;;;;;;12.60;99.90;;;;;;5022148;28;19999;-84
2022/10/24 02:19:04;;;;;;;;;;;12.70;99.90;;;;;;5031091;28;19921;-88
2022/10/24 02:21:30;;;;;;;;;;;12.70;99.90;;;;;;5027594;28;20536;-86
2022/10/24 02:24:04;;;;;;;;;;;12.70;99.90;;;;;;5028882;28;20502;-87
2022/10/24 02:26:35;;;;;;;;;;;12.70;99.90;;;;;;5028736;28;19913;-86
2022/10/24 02:29:03;;;;;;;;;;;12.80;99.90;;;;;;5032634;28;19921;-86
2022/10/24 02:31:34;;;;;;;;;;;12.80;99.90;;;;;;5031203;28;19917;-87
2022/10/24 02:34:02;;;;;;;;;;;12.80;99.90;;;;;;5026975;28;19956;-86
2022/10/24 02:36:28;;;;;;;;;;;12.80;99.90;;;;;;5025214;28;20578;-86
2022/10/24 02:38:54;;;;;;;;;;;12.80;99.90;;;;;;5024894;28;20534;-86
2022/10/24 02:41:23;;;;;;;;;;;12.70;99.90;;;;;;5014759;28;19913;-85
2022/10/24 02:43:49;;;;;;;;;;;12.70;99.90;;;;;;5029763;28;19964;-87
2022/10/24 02:46:15;;;;;;;;;;;12.80;99.90;;;;;;5030861;28;19940;-86
2022/10/24 02:48:44;;;;;;;;;;;12.80;99.90;;;;;;5010423;28;19933;-86
2022/10/24 02:51:11;;;;;;;;;;;12.80;99.90;;;;;;5028878;28;19920;-86
2022/10/24 02:53:36;;;;;;;;;;;12.80;99.90;;;;;;5025685;28;20009;-86
2022/10/24 02:56:02;;;;;;;;;;;12.80;99.90;;;;;;5032514;28;20377;-87
2022/10/24 02:58:27;;;;;;;;;;;12.80;99.90;;;;;;5031844;28;19909;-86
2022/10/24 03:00:53;;;;;;;;;;;12.80;99.90;;;;;;5027287;28;19921;-88
2022/10/24 03:03:19;;;;;;;;;;;12.80;99.90;;;;;;4998414;28;19921;-85
2022/10/24 03:05:44;;;;;;;;;;;12.80;99.90;;;;;;5025529;28;20328;-84
2022/10/24 03:08:11;;;;;;;;;;;12.80;99.90;;;;;;5023845;28;19925;-86
2022/10/24 03:10:36;;;;;;;;;;;12.80;99.90;;;;;;5004040;28;19917;-85
2022/10/24 03:13:02;;;;;;;;;;;12.80;99.90;;;;;;5022424;28;19932;-86
2022/10/24 03:15:28;;;;;;;;;;;12.80;99.90;;;;;;5025595;28;19974;-86
2022/10/24 03:17:53;;;;;;;;;;;12.70;99.90;;;;;;5030427;28;20276;-87
2022/10/24 03:20:19;;;;;;;;;;;12.80;99.90;;;;;;5028739;28;20349;-85
2022/10/24 03:22:44;;;;;;;;;;;12.70;99.90;;;;;;5013939;28;20419;-85
2022/10/24 03:25:10;;;;;;;;;;;12.80;99.90;;;;;;5029912;28;19917;-86
2022/10/24 03:27:36;;;;;;;;;;;12.70;99.90;;;;;;5023602;28;19917;-87
2022/10/24 03:30:02;;;;;;;;;;;12.70;99.90;;;;;;5020778;28;19920;-86
2022/10/24 03:32:28;;;;;;;;;;;12.70;99.90;;;;;;5029616;28;19921;-86
2022/10/24 03:34:53;;;;;;;;;;;12.70;99.90;;;;;;5032128;28;19917;-87
2022/10/24 03:37:19;;;;;;;;;;;12.70;99.90;;;;;;5030815;28;19987;-86
2022/10/24 03:39:45;;;;;;;;;;;12.70;99.90;;;;;;5010284;28;19920;-86
2022/10/24 03:42:10;;;;;;;;;;;12.80;99.90;;;;;;5030342;28;19917;-85
2022/10/24 03:44:36;;;;;;;;;;;12.70;99.90;;;;;;5030953;28;19967;-87
2022/10/24 03:47:01;;;;;;;;;;;12.70;99.90;;;;;;5027264;28;19929;-87
2022/10/24 03:49:27;;;;;;;;;;;12.70;99.90;;;;;;5010448;28;20644;-86
2022/10/24 03:51:52;;;;;;;;;;;12.70;99.90;;;;;;5021768;28;20339;-87
2022/10/24 03:54:18;;;;;;;;;;;12.70;99.90;;;;;;5000789;28;19921;-85
2022/10/24 03:56:44;;;;;;;;;;;12.70;99.90;;;;;;5029639;28;19924;-85
2022/10/24 03:59:10;;;;;;;;;;;12.70;99.90;;;;;;5027579;28;19936;-86
2022/10/24 04:01:35;;;;;;;;;;;12.70;99.90;;;;;;5031012;28;20348;-87
2022/10/24 04:04:01;;;;;;;;;;;12.70;99.90;;;;;;5006468;28;19917;-87
2022/10/24 04:06:27;;;;;;;;;;;12.80;99.90;;;;;;5020302;28;19948;-85
2022/10/24 04:08:52;;;;;;;;;;;12.70;99.90;;;;;;5013331;28;19931;-87
2022/10/24 04:11:18;;;;;;;;;;;12.70;99.90;;;;;;5010910;28;20024;-87
2022/10/24 04:13:43;;;;;;;;;;;12.70;99.90;;;;;;5021819;28;20016;-86
2022/10/24 04:16:09;;;;;;;;;;;12.70;99.90;;;;;;5001296;28;19917;-86
2022/10/24 04:18:34;;;;;;;;;;;12.70;99.90;;;;;;5008061;28;20413;-86
2022/10/24 04:21:00;;;;;;;;;;;12.80;99.90;;;;;;5020216;28;19965;-85
2022/10/24 04:23:26;;;;;;;;;;;12.70;99.90;;;;;;5021078;28;19926;-87
2022/10/24 04:25:52;;;;;;;;;;;12.80;99.90;;;;;;5028774;28;20311;-87
2022/10/24 04:28:17;;;;;;;;;;;12.80;99.90;;;;;;5019174;28;19921;-87
2022/10/24 04:30:43;;;;;;;;;;;12.70;99.90;;;;;;5025443;28;20268;-86
2022/10/24 04:33:08;;;;;;;;;;;12.70;99.90;;;;;;5005988;28;19917;-88
2022/10/24 04:35:34;;;;;;;;;;;12.70;99.90;;;;;;5003390;28;20024;-86
2022/10/24 04:37:59;;;;;;;;;;;12.70;99.90;;;;;;5023643;28;19921;-86
2022/10/24 04:40:25;;;;;;;;;;;12.70;99.90;;;;;;5023518;28;19984;-86
2022/10/24 04:42:50;;;;;;;;;;;12.80;99.90;;;;;;5022931;28;20341;-87
2022/10/24 04:45:16;;;;;;;;;;;12.70;99.90;;;;;;5013658;28;19917;-88
2022/10/24 04:47:41;;;;;;;;;;;12.70;99.90;;;;;;5018963;28;20397;-85
2022/10/24 04:50:08;;;;;;;;;;;12.70;99.90;;;;;;5026301;28;19932;-86
2022/10/24 04:52:33;;;;;;;;;;;12.70;99.90;;;;;;5024348;28;19913;-87
2022/10/24 04:54:59;;;;;;;;;;;12.70;99.90;;;;;;5010366;28;19924;-88
2022/10/24 04:57:25;;;;;;;;;;;12.70;99.90;;;;;;5027334;28;20359;-86
2022/10/24 04:59:50;;;;;;;;;;;12.60;99.90;;;;;;5009739;28;19913;-88
2022/10/24 05:02:16;;;;;;;;;;;12.60;99.90;;;;;;5010226;28;20324;-83
2022/10/24 05:04:41;;;;;;;;;;;12.60;99.90;;;;;;5025510;28;20392;-86
2022/10/24 05:07:07;;;;;;;;;;;12.60;99.90;;;;;;5008281;28;20023;-87
2022/10/24 05:09:32;;;;;;;;;;;12.70;99.90;;;;;;5025520;28;20428;-86
2022/10/24 05:11:58;;;;;;;;;;;12.60;99.90;;;;;;5004758;28;20569;-88
2022/10/24 05:14:23;;;;;;;;;;;12.60;99.90;;;;;;5029986;28;19917;-84
2022/10/24 05:16:49;;;;;;;;;;;12.60;99.90;;;;;;5003008;28;20008;-85
2022/10/24 05:19:15;;;;;;;;;;;12.60;99.90;;;;;;5022921;28;19920;-87
2022/10/24 05:21:41;;;;;;;;;;;12.60;99.90;;;;;;5021553;28;20020;-86
2022/10/24 05:24:06;;;;;;;;;;;12.60;99.90;;;;;;5022964;28;20370;-86
2022/10/24 05:26:32;;;;;;;;;;;12.60;99.90;;;;;;5023984;28;19921;-86
2022/10/24 05:28:57;;;;;;;;;;;12.60;99.90;;;;;;5023563;28;19921;-87
2022/10/24 05:31:23;;;;;;;;;;;12.50;99.90;;;;;;5021930;28;19997;-86
2022/10/24 05:33:48;;;;;;;;;;;12.60;99.90;;;;;;5032387;28;19959;-86
2022/10/24 05:36:14;;;;;;;;;;;12.50;99.90;;;;;;5010401;28;20012;-88
2022/10/24 05:38:39;;;;;;;;;;;12.50;99.90;;;;;;5015974;28;20268;-88
2022/10/24 05:41:05;;;;;;;;;;;12.50;99.90;;;;;;5033256;28;19921;-89
2022/10/24 05:43:30;;;;;;;;;;;12.60;99.90;;;;;;5034594;28;19917;-88
2022/10/24 05:45:56;;;;;;;;;;;12.60;99.90;;;;;;5014152;28;19945;-88
2022/10/24 05:48:21;;;;;;;;;;;12.60;99.90;;;;;;5033953;28;20568;-88
2022/10/24 05:50:47;;;;;;;;;;;12.60;99.90;;;;;;5035180;28;19920;-88
2022/10/24 05:53:12;;;;;;;;;;;12.60;99.90;;;;;;5035536;28;19957;-87
2022/10/24 05:55:38;;;;;;;;;;;12.60;99.90;;;;;;5012729;28;20288;-90
2022/10/24 05:58:03;;;;;;;;;;;12.60;99.90;;;;;;5035101;28;19917;-89
2022/10/24 06:00:29;;;;;;;;;;;12.60;99.90;;;;;;5011286;28;19969;-91
2022/10/24 06:02:54;;;;;;;;;;;12.60;99.90;;;;;;5014524;28;19917;-89
2022/10/24 06:05:20;;;;;;;;;;;12.60;99.90;;;;;;4998297;28;19918;-93
2022/10/24 06:07:46;;;;;;;;;;;12.60;99.90;;;;;;5010425;28;20024;-90
2022/10/24 06:10:12;;;;;;;;;;;12.60;99.90;;;;;;5016962;28;19940;-89
2022/10/24 06:12:38;;;;;;;;;;;12.50;99.90;;;;;;5033913;28;19925;-89
2022/10/24 06:15:04;;;;;;;;;;;12.50;99.90;;;;;;5017469;28;19914;-88
2022/10/24 06:17:30;;;;;;;;;;;12.50;99.90;;;;;;5017033;28;19928;-91
2022/10/24 06:19:55;;;;;;;;;;;12.60;99.90;;;;;;5034683;28;19914;-90
2022/10/24 06:22:26;;;;;;;;;;;12.60;99.90;;;;;;5034673;28;19929;-88
2022/10/24 06:24:52;;;;;;;;;;;12.60;99.90;;;;;;5034889;28;19913;-89
2022/10/24 06:27:17;;;;;;;;;;;12.60;99.90;;;;;;5032430;28;19921;-90
2022/10/24 06:29:43;;;;;;;;;;;12.60;99.90;;;;;;5011968;28;19914;-90
2022/10/24 06:32:09;;;;;;;;;;;12.60;99.90;;;;;;5015923;28;19918;-89
2022/10/24 06:34:34;;;;;;;;;;;12.70;99.90;;;;;;5004780;28;19921;-89
2022/10/24 06:37:00;;;;;;;;;;;12.70;99.90;;;;;;5033219;28;20423;-90
2022/10/24 06:39:25;;;;;;;;;;;12.70;99.90;;;;;;5015924;28;19921;-90
2022/10/24 06:41:51;;;;;;;;;;;12.70;99.90;;;;;;5034085;28;19919;-90
2022/10/24 06:44:16;;;;;;;;;;;12.70;99.90;;;;;;5033719;28;19921;-91
2022/10/24 06:46:42;;;;;;;;;;;12.80;99.90;;;;;;5014123;28;19980;-91
2022/10/24 06:49:08;;;;;;;;;;;12.80;99.90;;;;;;5011120;28;19923;-90
2022/10/24 06:51:34;;;;;;;;;;;12.70;99.90;;;;;;5012506;28;19920;-91
2022/10/24 06:54:00;;;;;;;;;;;12.70;99.90;;;;;;5033922;28;19913;-88
2022/10/24 06:56:25;;;;;;;;;;;12.80;99.90;;;;;;5015284;28;19967;-91
2022/10/24 06:58:51;;;;;;;;;;;12.80;99.90;;;;;;5017479;28;20015;-91
2022/10/24 07:01:18;;;;;;;;;;;12.90;99.90;;;;;;5034457;28;19924;-91
2022/10/24 07:03:44;;;;;;;;;;;13.00;99.90;;;;;;5036230;28;20285;-92
2022/10/24 07:06:15;;;;;;;;;;;12.90;99.90;;;;;;5016798;28;19913;-89
2022/10/24 07:08:40;;;;;;;;;;;13.00;99.90;;;;;;5028663;28;20430;-89
2022/10/24 07:11:06;;;;;;;;;;;13.00;99.90;;;;;;5015463;28;20012;-88
2022/10/24 07:13:31;;;;;;;;;;;13.00;99.90;;;;;;5033691;28;19913;-89
2022/10/24 07:15:57;;;;;;;;;;;12.90;99.90;;;;;;5033305;28;19999;-89
2022/10/24 07:18:23;;;;;;;;;;;12.90;99.90;;;;;;5014643;28;19917;-90
2022/10/24 07:20:48;;;;;;;;;;;13.00;99.90;;;;;;5033459;28;19909;-90
2022/10/24 07:23:14;;;;;;;;;;;12.90;99.90;;;;;;5014301;28;19933;-88
2022/10/24 07:25:39;;;;;;;;;;;12.90;99.90;;;;;;5033153;28;20296;-89
2022/10/24 07:28:05;;;;;;;;;;;13.00;99.90;;;;;;5030743;28;20024;-90
2022/10/24 07:30:31;;;;;;;;;;;12.90;99.90;;;;;;5032597;28;20016;-86
2022/10/24 07:32:57;;;;;;;;;;;12.90;99.90;;;;;;5033105;28;19960;-88
2022/10/24 07:35:22;;;;;;;;;;;12.90;99.90;;;;;;5033362;28;19935;-86
2022/10/24 07:37:48;;;;;;;;;;;12.90;99.90;;;;;;5033070;28;19967;-89
2022/10/24 07:40:14;;;;;;;;;;;12.80;99.90;;;;;;5032951;28;19966;-87
2022/10/24 07:42:39;;;;;;;;;;;12.80;99.90;;;;;;5031566;28;19987;-88
2022/10/24 07:45:06;;;;;;;;;;;12.90;99.90;;;;;;5015488;28;20315;-87
2022/10/24 07:47:32;;;;;;;;;;;12.90;99.90;;;;;;5012609;28;20316;-85
2022/10/24 07:49:57;;;;;;;;;;;12.90;99.90;;;;;;5015092;28;19913;-88
2022/10/24 07:52:23;;;;;;;;;;;12.90;99.90;;;;;;5031991;28;20384;-88
2022/10/24 07:54:48;;;;;;;;;;;12.90;99.90;;;;;;5014569;28;19971;-88
2022/10/24 07:57:14;;;;;;;;;;;12.90;99.90;;;;;;5032423;28;19924;-87
2022/10/24 07:59:39;;;;;;;;;;;12.90;99.90;;;;;;5032679;28;20292;-89
2022/10/24 08:02:05;;;;;;;;;;;12.90;99.90;;;;;;5014101;28;19917;-89
2022/10/24 08:04:30;;;;;;;;;;;13.10;99.90;;;;;;5031712;28;19943;-89
2022/10/24 08:06:56;;;;;;;;;;;13.00;99.90;;;;;;5031419;28;20578;-90
2022/10/24 08:09:22;;;;;;;;;;;13.00;99.90;;;;;;5032161;28;20353;-90
2022/10/24 08:11:47;;;;;;;;;;;13.00;99.90;;;;;;5014515;28;20376;-89
2022/10/24 08:14:13;;;;;;;;;;;13.10;99.90;;;;;;5032743;28;19968;-88
2022/10/24 08:16:40;;;;;;;;;;;13.10;99.90;;;;;;5014412;28;19919;-89
2022/10/24 08:19:06;;;;;;;;;;;13.10;99.90;;;;;;5032409;28;19909;-88
2022/10/24 08:21:33;;;;;;;;;;;13.20;99.90;;;;;;5032613;28;19921;-88
2022/10/24 08:23:59;;;;;;;;;;;13.20;99.90;;;;;;5032165;28;19924;-86
2022/10/24 08:26:24;;;;;;;;;;;13.40;99.90;;;;;;5011729;28;19917;-87
2022/10/24 08:28:50;;;;;;;;;;;13.50;99.90;;;;;;5026619;28;20003;-89
2022/10/24 08:31:17;;;;;;;;;;;13.40;99.90;;;;;;5010600;28;20005;-87
2022/10/24 08:33:43;;;;;;;;;;;13.50;99.90;;;;;;5028396;28;19913;-89
2022/10/24 08:36:20;;;;;;;;;;;13.50;99.90;;;;;;5026630;28;19914;-87
2022/10/24 08:38:45;;;;;;;;;;;13.40;99.90;;;;;;5010797;28;19913;-88
2022/10/24 08:41:29;;;;;;;;;;;13.60;99.90;;;;;;5014117;28;19959;-87
2022/10/24 08:43:57;;;;;;;;;;;13.80;99.90;;;;;;5029353;28;19920;-88
2022/10/24 08:46:30;;;;;;;;;;;13.80;99.90;;;;;;5031592;28;19921;-87
2022/10/24 08:49:00;;;;;;;;;;;13.80;99.90;;;;;;5031130;28;19924;-89
2022/10/24 08:51:42;;;;;;;;;;;13.70;99.90;;;;;;5031304;28;19917;-88
2022/10/24 08:54:11;;;;;;;;;;;13.50;99.90;;;;;;5031336;28;19917;-86
2022/10/24 08:56:37;;;;;;;;;;;13.30;99.90;;;;;;5013047;28;19931;-87
2022/10/24 08:59:03;;;;;;;;;;;13.20;99.90;;;;;;5029405;28;20428;-88
2022/10/24 09:01:38;;;;;;;;;;;13.20;99.90;;;;;;5030360;28;19996;-85
2022/10/24 09:04:07;;;;;;;;;;;13.20;99.90;;;;;;5028661;28;19924;-87
2022/10/24 09:06:32;;;;;;;;;;;13.10;99.90;;;;;;5020763;28;20012;-89
2022/10/24 09:09:03;;;;;;;;;;;13.20;99.90;;;;;;5015579;28;20048;-88
2022/10/24 09:11:41;;;;;;;;;;;13.10;99.90;;;;;;5035250;28;19920;-88
2022/10/24 09:14:11;;;;;;;;;;;13.20;99.90;;;;;;5034093;28;19952;-85
2022/10/24 09:16:37;;;;;;;;;;;13.10;99.90;;;;;;5014492;28;19916;-88
2022/10/24 09:19:02;;;;;;;;;;;13.10;99.90;;;;;;5038132;28;19917;-88
2022/10/24 09:21:28;;;;;;;;;;;13.10;99.90;;;;;;5013593;28;19921;-86
2022/10/24 09:23:54;;;;;;;;;;;13.20;99.90;;;;;;5034073;28;20721;-89
2022/10/24 09:26:27;;;;;;;;;;;13.10;99.90;;;;;;5026971;28;20372;-90
2022/10/24 09:28:55;;;;;;;;;;;13.10;99.90;;;;;;5008881;28;19921;-88
2022/10/24 09:31:23;;;;;;;;;;;13.10;99.90;;;;;;5031509;28;19917;-90
2022/10/24 09:33:50;;;;;;;;;;;13.10;99.90;;;;;;5031205;28;20035;-88
2022/10/24 09:36:18;;;;;;;;;;;13.10;99.90;;;;;;5034966;28;19959;-89
2022/10/24 09:38:44;;;;;;;;;;;13.10;99.90;;;;;;5015652;28;19917;-86
2022/10/24 09:41:12;;;;;;;;;;;13.00;99.90;;;;;;5028885;28;19917;-87
2022/10/24 09:43:39;;;;;;;;;;;13.00;99.90;;;;;;5030557;28;19921;-86
2022/10/24 09:46:06;;;;;;;;;;;13.00;99.90;;;;;;5016605;28;20207;-88
2022/10/24 09:48:50;;;;;;;;;;;13.00;99.90;;;;;;5013602;28;19925;-88
2022/10/24 09:51:18;;;;;;;;;;;13.00;99.90;;;;;;5030485;28;19917;-88
2022/10/24 09:53:57;;;;;;;;;;;13.10;99.90;;;;;;5033443;28;19913;-88
2022/10/24 09:56:31;;;;;;;;;;;13.10;99.90;;;;;;5016931;28;19938;-88
2022/10/24 09:58:56;;;;;;;;;;;13.10;99.90;;;;;;5034546;28;19913;-88
2022/10/24 10:01:22;;;;;;;;;;;13.30;99.90;;;;;;5016825;28;19924;-88
2022/10/24 10:04:01;;;;;;;;;;;13.40;99.90;;;;;;5031813;28;20582;-89
2022/10/24 10:06:27;;;;;;;;;;;13.40;99.90;;;;;;5022670;28;19953;-86
2022/10/24 10:08:54;;;;;;;;;;;13.40;99.90;;;;;;5000472;28;20007;-88
2022/10/24 10:11:25;;;;;;;;;;;13.30;99.90;;;;;;5015789;28;19985;-88
2022/10/24 10:13:54;;;;;;;;;;;13.30;99.90;;;;;;5033888;28;19913;-88
2022/10/24 10:16:29;;;;;;;;;;;13.20;99.90;;;;;;5016686;28;20388;-89
2022/10/24 10:19:11;;;;;;;;;;;13.20;99.90;;;;;;5016423;28;20277;-88
2022/10/24 10:21:53;;;;;;;;;;;13.20;99.90;;;;;;5023082;28;19961;-88
2022/10/24 10:24:26;;;;;;;;;;;13.10;99.90;;;;;;5033484;28;19920;-87
2022/10/24 10:26:52;;;;;;;;;;;13.20;99.90;;;;;;5029305;28;19992;-88
2022/10/24 10:29:18;;;;;;;;;;;13.10;99.90;;;;;;5033773;28;20004;-86
2022/10/24 10:31:45;;;;;;;;;;;13.20;99.90;;;;;;5033614;28;20473;-85
2022/10/24 10:34:29;;;;;;;;;;;13.10;99.90;;;;;;5033702;28;19913;-88
2022/10/24 10:36:54;;;;;;;;;;;13.10;99.90;;;;;;5032547;28;20003;-89
2022/10/24 10:39:44;;;;;;;;;;;13.00;99.90;;;;;;5032809;28;20020;-86
2022/10/24 10:42:19;;;;;;;;;;;13.10;99.90;;;;;;5032606;28;19917;-90
2022/10/24 10:44:50;;;;;;;;;;;13.00;99.90;;;;;;5033526;28;20399;-88
2022/10/24 10:47:23;;;;;;;;;;;13.10;99.90;;;;;;5034184;28;19956;-88
2022/10/24 10:49:53;;;;;;;;;;;13.10;99.90;;;;;;5013807;28;19963;-86
2022/10/24 10:52:22;;;;;;;;;;;13.20;99.90;;;;;;5016205;28;20289;-86
2022/10/24 10:54:54;;;;;;;;;;;13.20;99.90;;;;;;5016819;28;19913;-88
2022/10/24 10:57:21;;;;;;;;;;;13.40;99.90;;;;;;5015866;28;20636;-88
2022/10/24 11:00:07;;;;;;;;;;;13.40;99.90;;;;;;5016125;28;19909;-89
2022/10/24 11:02:38;;;;;;;;;;;13.40;99.90;;;;;;5033143;28;20376;-87
2022/10/24 11:05:23;;;;;;;;;;;13.40;99.90;;;;;;5008812;28;19913;-88
2022/10/24 11:07:55;;;;;;;;;;;13.40;99.90;;;;;;5032217;28;19924;-88
2022/10/24 11:10:25;;;;;;;;;;;13.40;99.90;;;;;;5034957;28;19913;-89
2022/10/24 11:12:52;;;;;;;;;;;13.30;99.90;;;;;;5033957;28;20007;-89
2022/10/24 11:15:33;;;;;;;;;;;13.20;99.90;;;;;;5031916;28;19963;-90
2022/10/24 11:18:28;;;;;;;;;;;13.10;99.90;;;;;;5012711;28;19921;-88
2022/10/24 11:21:13;;;;;;;;;;;13.20;99.90;;;;;;4996681;28;19917;-89
2022/10/24 11:23:45;;;;;;;;;;;13.30;99.90;;;;;;5018989;28;20016;-88
2022/10/24 11:26:14;;;;;;;;;;;13.30;99.90;;;;;;5013938;28;19910;-90
2022/10/24 11:28:42;;;;;;;;;;;13.30;99.90;;;;;;5013093;28;19976;-90
2022/10/24 11:31:10;;;;;;;;;;;13.50;99.90;;;;;;4991547;28;19934;-89
2022/10/24 11:33:48;;;;;;;;;;;13.60;99.90;;;;;;4995709;28;19960;-89
2022/10/24 11:36:40;;;;;;;;;;;13.60;99.90;;;;;;5010893;28;20277;-89
2022/10/24 11:39:11;;;;;;;;;;;13.70;99.90;;;;;;4988989;28;19914;-89
2022/10/24 11:41:47;;;;;;;;;;;13.80;99.90;;;;;;5002400;28;19918;-88
2022/10/24 11:44:18;;;;;;;;;;;13.70;99.90;;;;;;5013315;28;19968;-89
2022/10/24 11:46:46;;;;;;;;;;;13.50;99.90;;;;;;5006849;28;20346;-89
2022/10/24 11:49:16;;;;;;;;;;;13.50;99.90;;;;;;4996320;28;19929;-88
2022/10/24 11:51:47;;;;;;;;;;;13.40;99.90;;;;;;5008496;28;19910;-90
2022/10/24 11:54:20;;;;;;;;;;;13.40;99.90;;;;;;4993986;28;20009;-89
2022/10/24 11:56:48;;;;;;;;;;;13.40;99.90;;;;;;4993934;28;19956;-88
2022/10/24 11:59:22;;;;;;;;;;;13.30;99.90;;;;;;4996777;28;19961;-87
2022/10/24 12:01:54;;;;;;;;;;;13.30;99.90;;;;;;5010008;28;19922;-88
2022/10/24 12:04:19;;;;;;;;;;;13.30;99.90;;;;;;4998849;28;19936;-88
2022/10/24 12:06:51;;;;;;;;;;;13.40;99.90;;;;;;4984056;28;19917;-87
2022/10/24 12:09:19;;;;;;;;;;;13.40;99.90;;;;;;5013290;28;19920;-87
2022/10/24 12:11:57;;;;;;;;;;;13.40;99.90;;;;;;5010022;28;19980;-87
2022/10/24 12:14:26;;;;;;;;;;;13.50;99.90;;;;;;5006171;28;19914;-89
2022/10/24 12:17:12;;;;;;;;;;;13.60;99.90;;;;;;5009050;28;19971;-89
2022/10/24 12:19:41;;;;;;;;;;;13.40;99.90;;;;;;4992331;28;19918;-88
2022/10/24 12:22:13;;;;;;;;;;;13.50;99.90;;;;;;4999891;28;19944;-89
2022/10/24 12:24:39;;;;;;;;;;;13.60;99.90;;;;;;5011870;28;20265;-87
2022/10/24 12:27:25;;;;;;;;;;;13.60;99.90;;;;;;5003423;28;19913;-88
2022/10/24 12:29:59;;;;;;;;;;;13.70;99.90;;;;;;5001659;28;19925;-86
2022/10/24 12:32:49;;;;;;;;;;;13.80;99.90;;;;;;5010536;28;20357;-88
2022/10/24 12:35:34;;;;;;;;;;;13.70;99.90;;;;;;4987841;28;19913;-88
2022/10/24 12:38:01;;;;;;;;;;;13.40;99.90;;;;;;5011118;28;19980;-88
2022/10/24 12:40:45;;;;;;;;;;;13.20;99.90;;;;;;5005223;28;19936;-89
2022/10/24 12:43:13;;;;;;;;;;;13.20;99.90;;;;;;5004997;28;19979;-88
2022/10/24 12:45:39;;;;;;;;;;;13.20;99.90;;;;;;4997496;28;20280;-89
2022/10/24 12:48:22;;;;;;;;;;;13.30;99.90;;;;;;5004414;28;19917;-90
2022/10/24 12:51:02;;;;;;;;;;;13.40;99.90;;;;;;5017171;28;19914;-88
2022/10/24 12:53:38;;;;;;;;;;;13.30;99.90;;;;;;5007355;28;19909;-89
2022/10/24 12:56:06;;;;;;;;;;;13.30;99.90;;;;;;4998028;28;19928;-89
2022/10/24 12:58:36;;;;;;;;;;;13.30;99.90;;;;;;4996102;28;19924;-89
2022/10/24 13:01:03;;;;;;;;;;;13.00;99.90;;;;;;5016162;28;20315;-89
2022/10/24 13:03:48;;;;;;;;;;;13.00;99.90;;;;;;4994822;28;20361;-89
2022/10/24 13:06:17;;;;;;;;;;;13.00;99.90;;;;;;5004415;28;19936;-87
2022/10/24 13:08:51;;;;;;;;;;;13.10;99.90;;;;;;5014081;28;19918;-90
2022/10/24 13:11:26;;;;;;;;;;;13.10;99.90;;;;;;4996557;28;19940;-88
2022/10/24 13:14:07;;;;;;;;;;;13.30;99.90;;;;;;5015025;28;19920;-89
2022/10/24 13:16:36;;;;;;;;;;;13.30;99.90;;;;;;5011570;28;19920;-88
2022/10/24 13:19:05;;;;;;;;;;;13.40;99.90;;;;;;4986312;28;20480;-88
2022/10/24 13:21:32;;;;;;;;;;;13.40;99.90;;;;;;5017159;28;19916;-88
2022/10/24 13:24:16;;;;;;;;;;;13.40;99.90;;;;;;5016271;28;20003;-88
2022/10/24 13:26:43;;;;;;;;;;;13.40;99.90;;;;;;5035894;28;19917;-86
2022/10/24 13:29:13;;;;;;;;;;;13.50;99.90;;;;;;5017176;28;20276;-88
2022/10/24 13:31:40;;;;;;;;;;;13.70;99.90;;;;;;5011353;28;19979;-88
2022/10/24 13:34:13;;;;;;;;;;;13.90;99.90;;;;;;5017898;28;19917;-86
2022/10/24 13:36:38;;;;;;;;;;;13.90;99.90;;;;;;5022183;28;19917;-87
2022/10/24 13:39:09;;;;;;;;;;;14.10;99.90;;;;;;5006032;28;19940;-88
2022/10/24 13:41:35;;;;;;;;;;;13.90;99.90;;;;;;4999202;28;20255;-85
2022/10/24 13:44:04;;;;;;;;;;;13.90;99.90;;;;;;5035320;28;19917;-86
2022/10/24 13:46:50;;;;;;;;;;;13.80;99.90;;;;;;5017174;28;19921;-85
2022/10/24 13:49:20;;;;;;;;;;;13.80;99.90;;;;;;5006697;28;19917;-86
2022/10/24 13:51:48;;;;;;;;;;;13.80;99.90;;;;;;5035099;28;20250;-85
2022/10/24 13:54:18;;;;;;;;;;;13.70;99.90;;;;;;5011666;28;19940;-86
2022/10/24 13:56:45;;;;;;;;;;;13.60;99.90;;;;;;5035226;28;19913;-87
2022/10/24 13:59:30;;;;;;;;;;;13.40;99.90;;;;;;5026599;28;19927;-86
2022/10/24 14:01:57;;;;;;;;;;;13.50;99.90;;;;;;5017138;28;19913;-86
2022/10/24 14:04:23;;;;;;;;;;;13.40;99.90;;;;;;5015369;28;19913;-86
2022/10/24 14:06:48;;;;;;;;;;;13.50;99.90;;;;;;5034922;28;20300;-89
2022/10/24 14:09:14;;;;;;;;;;;13.50;99.90;;;;;;5016730;28;19967;-87
2022/10/24 14:11:41;;;;;;;;;;;13.50;99.90;;;;;;5034650;28;20020;-86
2022/10/24 14:14:13;;;;;;;;;;;13.50;99.90;;;;;;5000260;28;19910;-86
2022/10/24 14:16:39;;;;;;;;;;;13.60;99.90;;;;;;5030350;28;19913;-86
2022/10/24 14:19:13;;;;;;;;;;;13.70;99.90;;;;;;5030254;28;19960;-85
2022/10/24 14:21:40;;;;;;;;;;;13.60;99.90;;;;;;5008503;28;20357;-87
2022/10/24 14:24:07;;;;;;;;;;;13.40;99.90;;;;;;5027072;28;19944;-86
2022/10/24 14:26:33;;;;;;;;;;;13.40;99.90;;;;;;5011305;28;19921;-86